Time;durP1;ratioP1;P1;durP2;ratioP2;P2;SDS_P1;SDS_P2;PMS_P1;PMS_P2;Temp;Humidity;BMP_temperature;BMP_pressure;BME280_temperature;BME280_humidity;BME280_pressure;Samples;Min_cycle;Max_cycle;Signal;HPM_P1;HPM_P2
2021/09/08 00:01:14;;;;;;;9.43;7.33;;;20.50;99.90;;;;;;5005352;28;20493;-78
2021/09/08 00:03:43;;;;;;;8.10;6.27;;;20.40;99.90;;;;;;5008616;28;20458;-76
2021/09/08 00:06:11;;;;;;;6.73;6.13;;;20.40;99.90;;;;;;5006132;28;20735;-78
2021/09/08 00:08:39;;;;;;;8.20;7.37;;;20.40;99.90;;;;;;5007068;28;20437;-76
2021/09/08 00:11:07;;;;;;;8.20;7.40;;;20.30;99.90;;;;;;5005035;28;20465;-77
2021/09/08 00:13:35;;;;;;;7.70;6.60;;;20.30;99.90;;;;;;5006759;28;20457;-76
2021/09/08 00:16:05;;;;;;;8.43;6.87;;;20.30;99.90;;;;;;5008543;28;20984;-78
2021/09/08 00:18:34;;;;;;;8.07;6.87;;;20.30;99.90;;;;;;5007028;28;20438;-77
2021/09/08 00:21:02;;;;;;;7.80;6.97;;;20.30;99.90;;;;;;5006395;28;20584;-76
2021/09/08 00:23:30;;;;;;;7.87;6.97;;;20.30;99.90;;;;;;5007697;28;20514;-77
2021/09/08 00:25:58;;;;;;;8.33;7.00;;;20.30;99.90;;;;;;5006469;28;20465;-77
2021/09/08 00:28:26;;;;;;;7.00;6.30;;;20.20;99.90;;;;;;5005237;28;20508;-77
2021/09/08 00:30:54;;;;;;;7.57;6.87;;;20.20;99.90;;;;;;4999132;28;20486;-73
2021/09/08 00:33:24;;;;;;;7.33;6.63;;;20.20;99.90;;;;;;5003690;28;20531;-78
2021/09/08 00:35:53;;;;;;;9.40;7.10;;;20.20;99.90;;;;;;5009106;28;20894;-78
2021/09/08 00:38:21;;;;;;;7.10;6.40;;;20.20;99.90;;;;;;5006829;28;20480;-75
2021/09/08 00:40:49;;;;;;;7.70;6.97;;;20.10;99.90;;;;;;5006447;28;20550;-74
2021/09/08 00:43:17;;;;;;;8.80;7.17;;;20.20;99.90;;;;;;5007233;28;20469;-74
2021/09/08 00:45:51;;;;;;;10.43;7.23;;;20.10;99.90;;;;;;5006926;28;20446;-76
2021/09/08 00:48:20;;;;;;;9.00;7.80;;;20.10;99.90;;;;;;5006395;28;20459;-77
2021/09/08 00:50:50;;;;;;;8.47;7.13;;;20.00;99.90;;;;;;5007113;28;20551;-74
2021/09/08 00:53:20;;;;;;;8.17;6.67;;;20.00;99.90;;;;;;5007624;28;20461;-77
2021/09/08 00:55:49;;;;;;;7.23;6.27;;;20.00;99.90;;;;;;5007507;28;20496;-73
2021/09/08 00:58:17;;;;;;;7.33;6.63;;;20.00;99.90;;;;;;5005795;28;20469;-76
2021/09/08 01:00:45;;;;;;;9.50;7.90;;;19.90;99.90;;;;;;5004431;28;20473;-74
2021/09/08 01:03:14;;;;;;;11.00;7.10;;;19.90;99.90;;;;;;5005908;28;21085;-75
2021/09/08 01:05:45;;;;;;;8.97;7.30;;;19.90;99.90;;;;;;5005785;28;20475;-75
2021/09/08 01:08:15;;;;;;;9.07;7.50;;;19.90;99.90;;;;;;5006321;28;21292;-74
2021/09/08 01:10:43;;;;;;;7.43;6.70;;;19.90;99.90;;;;;;5001523;28;20775;-75
2021/09/08 01:13:11;;;;;;;8.57;7.40;;;19.80;99.90;;;;;;4999866;28;20722;-78
2021/09/08 01:15:39;;;;;;;7.70;6.90;;;19.80;99.90;;;;;;5005617;28;20944;-77
2021/09/08 01:18:08;;;;;;;7.13;6.43;;;19.80;99.90;;;;;;5002549;28;20953;-75
2021/09/08 01:20:36;;;;;;;8.67;7.77;;;19.80;99.90;;;;;;5005658;28;21262;-76
2021/09/08 01:23:05;;;;;;;8.37;7.50;;;19.80;99.90;;;;;;5006346;28;20480;-76
2021/09/08 01:25:33;;;;;;;8.27;7.47;;;19.70;99.90;;;;;;5004887;28;20600;-76
2021/09/08 01:28:01;;;;;;;8.43;6.90;;;19.80;99.90;;;;;;5007452;28;20961;-75
2021/09/08 01:30:30;;;;;;;8.50;6.90;;;19.70;99.90;;;;;;4992294;28;20469;-77
2021/09/08 01:33:00;;;;;;;8.00;7.20;;;19.70;99.90;;;;;;5005080;28;20485;-77
2021/09/08 01:35:28;;;;;;;9.13;7.30;;;19.70;99.90;;;;;;5005752;28;20453;-77
2021/09/08 01:37:56;;;;;;;9.63;7.20;;;19.70;99.90;;;;;;5006626;28;20465;-77
2021/09/08 01:40:26;;;;;;;9.27;7.80;;;19.60;99.90;;;;;;5004255;28;20535;-77
2021/09/08 01:42:54;;;;;;;8.40;6.33;;;19.60;99.90;;;;;;5007130;28;20712;-76
2021/09/08 01:45:22;;;;;;;8.57;6.80;;;19.60;99.90;;;;;;5005480;28;20476;-76
2021/09/08 01:47:53;;;;;;;7.53;6.80;;;19.60;99.90;;;;;;5005610;28;20515;-76
2021/09/08 01:50:22;;;;;;;6.60;6.00;;;19.60;99.90;;;;;;5007404;28;20544;-77
2021/09/08 01:52:50;;;;;;;8.10;7.40;;;19.60;99.90;;;;;;5008286;28;20497;-76
2021/09/08 01:55:19;;;;;;;7.70;6.90;;;19.30;99.90;;;;;;5008206;28;20464;-76
2021/09/08 01:57:48;;;;;;;9.47;7.30;;;19.50;99.90;;;;;;5009382;28;20445;-72
2021/09/08 02:00:17;;;;;;;8.73;7.17;;;19.50;99.90;;;;;;5005943;28;20503;-77
2021/09/08 02:02:46;;;;;;;8.17;6.07;;;19.40;99.90;;;;;;5009684;28;20823;-76
2021/09/08 02:05:15;;;;;;;9.40;7.60;;;19.40;99.90;;;;;;5005423;28;20764;-76
2021/09/08 02:07:44;;;;;;;7.40;6.70;;;19.40;99.90;;;;;;5009301;28;20503;-76
2021/09/08 02:10:13;;;;;;;8.00;6.97;;;19.40;99.90;;;;;;5006881;28;20859;-74
2021/09/08 02:12:42;;;;;;;7.93;7.20;;;19.40;99.90;;;;;;5008492;28;20881;-76
2021/09/08 02:15:13;;;;;;;7.53;6.83;;;19.40;99.90;;;;;;4992321;28;20458;-75
2021/09/08 02:17:42;;;;;;;8.73;7.93;;;19.40;99.90;;;;;;5010290;28;20949;-75
2021/09/08 02:20:11;;;;;;;8.20;6.90;;;19.30;99.90;;;;;;5006119;28;20973;-76
2021/09/08 02:22:40;;;;;;;7.70;6.30;;;19.30;99.90;;;;;;4968112;28;1129895;-78
2021/09/08 02:25:08;;;;;;;6.47;5.87;;;19.30;99.90;;;;;;5009684;28;20641;-75
2021/09/08 02:27:37;;;;;;;7.73;6.80;;;19.30;99.90;;;;;;5010964;28;20894;-76
2021/09/08 02:30:06;;;;;;;9.60;6.67;;;19.20;99.90;;;;;;5007330;28;20492;-75
2021/09/08 02:32:36;;;;;;;8.53;7.20;;;19.20;99.90;;;;;;5010050;28;20480;-75
2021/09/08 02:35:05;;;;;;;7.73;7.00;;;19.20;99.90;;;;;;5009379;28;20492;-78
2021/09/08 02:37:34;;;;;;;7.60;6.80;;;19.20;99.90;;;;;;5010707;28;20486;-75
2021/09/08 02:40:02;;;;;;;12.33;8.13;;;19.20;99.90;;;;;;5008431;28;20521;-76
2021/09/08 02:42:30;;;;;;;7.23;6.53;;;19.10;99.90;;;;;;5010705;28;20543;-78
2021/09/08 02:44:58;;;;;;;7.57;6.67;;;19.10;99.90;;;;;;5008233;28;20669;-76
2021/09/08 02:47:26;;;;;;;8.13;7.33;;;19.00;99.90;;;;;;5009750;28;20623;-76
2021/09/08 02:49:55;;;;;;;7.07;6.43;;;19.00;99.90;;;;;;5007079;28;20456;-76
2021/09/08 02:52:23;;;;;;;7.47;6.77;;;19.00;99.90;;;;;;5009604;28;20472;-73
2021/09/08 02:54:52;;;;;;;8.00;7.10;;;19.00;99.90;;;;;;5009392;28;20457;-75
2021/09/08 02:57:20;;;;;;;11.57;7.80;;;19.00;99.90;;;;;;5009976;28;20878;-76
2021/09/08 02:59:48;;;;;;;9.50;7.67;;;19.00;99.90;;;;;;5006283;28;20520;-73
2021/09/08 03:02:16;;;;;;;7.57;6.67;;;19.00;99.90;;;;;;5008331;28;20492;-76
2021/09/08 03:04:44;;;;;;;7.20;6.50;;;19.00;99.90;;;;;;5003030;28;20449;-75
2021/09/08 03:07:14;;;;;;;8.07;7.23;;;19.00;99.90;;;;;;5009635;28;20461;-75
2021/09/08 03:09:42;;;;;;;8.03;7.20;;;19.00;99.90;;;;;;5008102;28;20473;-75
2021/09/08 03:12:10;;;;;;;8.57;6.80;;;19.00;99.90;;;;;;5008662;28;20844;-75
2021/09/08 03:14:38;;;;;;;8.17;6.70;;;18.90;99.90;;;;;;5000881;28;20458;-75
2021/09/08 03:17:06;;;;;;;9.83;7.07;;;18.90;99.90;;;;;;5006429;28;20534;-79
2021/09/08 03:19:35;;;;;;;9.17;6.30;;;18.80;99.90;;;;;;5004295;28;20457;-76
2021/09/08 03:22:04;;;;;;;6.60;5.83;;;18.80;99.90;;;;;;5005796;28;21963;-78
2021/09/08 03:24:33;;;;;;;7.03;6.17;;;18.80;99.90;;;;;;5009716;28;20465;-76
2021/09/08 03:27:01;;;;;;;8.73;6.73;;;18.80;99.90;;;;;;5009348;28;20700;-77
2021/09/08 03:29:29;;;;;;;8.00;6.10;;;18.80;99.90;;;;;;5004675;28;20457;-75
2021/09/08 03:31:57;;;;;;;7.50;6.80;;;18.80;99.90;;;;;;5004039;28;20760;-78
2021/09/08 03:34:25;;;;;;;7.70;6.87;;;18.70;99.90;;;;;;5009843;28;20870;-76
2021/09/08 03:36:53;;;;;;;8.40;6.90;;;18.70;99.90;;;;;;5008129;28;20512;-76
2021/09/08 03:39:21;;;;;;;6.70;6.10;;;18.60;99.90;;;;;;5007236;28;20482;-76
2021/09/08 03:41:51;;;;;;;7.03;6.33;;;18.60;99.90;;;;;;5009817;28;20489;-78
2021/09/08 03:44:19;;;;;;;7.37;6.67;;;18.60;99.90;;;;;;5007764;28;20493;-75
2021/09/08 03:46:47;;;;;;;7.73;6.90;;;18.60;99.90;;;;;;5007580;28;20465;-73
2021/09/08 03:49:15;;;;;;;8.53;6.77;;;18.50;99.90;;;;;;5005883;28;20457;-76
2021/09/08 03:51:43;;;;;;;7.70;6.73;;;18.50;99.90;;;;;;5001036;28;20874;-76
2021/09/08 03:54:11;;;;;;;7.43;6.63;;;18.50;99.90;;;;;;5006676;28;20500;-76
2021/09/08 03:56:39;;;;;;;6.80;6.07;;;18.50;99.90;;;;;;5007381;28;20968;-76
2021/09/08 03:59:09;;;;;;;8.10;6.80;;;18.50;99.90;;;;;;5008424;28;20446;-74
2021/09/08 04:01:37;;;;;;;7.00;6.40;;;18.30;99.90;;;;;;5006480;28;20500;-75
2021/09/08 04:04:06;;;;;;;6.97;6.37;;;18.30;99.90;;;;;;5003811;28;20477;-75
2021/09/08 04:06:34;;;;;;;7.50;6.63;;;18.30;99.90;;;;;;4998374;28;20461;-75
2021/09/08 04:09:02;;;;;;;7.30;5.93;;;18.40;99.90;;;;;;5007671;28;20452;-76
2021/09/08 04:11:30;;;;;;;7.67;6.73;;;18.30;99.90;;;;;;5006657;28;20473;-76
2021/09/08 04:13:58;;;;;;;8.57;7.30;;;18.40;99.90;;;;;;5008475;28;20457;-75
2021/09/08 04:16:27;;;;;;;10.20;8.00;;;18.30;99.90;;;;;;5005321;28;20453;-77
2021/09/08 04:18:56;;;;;;;7.33;6.63;;;18.30;99.90;;;;;;5006745;28;20531;-77
2021/09/08 04:21:24;;;;;;;6.70;6.10;;;18.30;99.90;;;;;;5006026;28;20551;-76
2021/09/08 04:23:52;;;;;;;8.70;6.87;;;18.30;99.90;;;;;;5009492;28;20964;-76
2021/09/08 04:26:20;;;;;;;8.03;6.90;;;18.30;99.90;;;;;;5006776;28;20945;-76
2021/09/08 04:28:48;;;;;;;8.63;7.43;;;18.20;99.90;;;;;;5007004;28;20457;-73
2021/09/08 04:31:17;;;;;;;7.63;6.53;;;18.20;99.90;;;;;;5005120;28;20481;-76
2021/09/08 04:33:47;;;;;;;9.47;6.43;;;18.20;99.90;;;;;;5009467;28;20449;-75
2021/09/08 04:36:15;;;;;;;6.73;5.83;;;18.20;99.90;;;;;;5007845;28;20458;-76
2021/09/08 04:38:45;;;;;;;6.90;5.93;;;18.10;99.90;;;;;;5008344;28;20531;-76
2021/09/08 04:41:13;;;;;;;7.40;6.70;;;18.10;99.90;;;;;;5005548;28;20489;-75
2021/09/08 04:43:42;;;;;;;7.83;7.03;;;18.00;99.90;;;;;;5008045;28;20898;-75
2021/09/08 04:46:10;;;;;;;10.17;6.70;;;18.00;99.90;;;;;;5004432;28;20484;-77
2021/09/08 04:48:38;;;;;;;9.50;6.90;;;18.10;99.90;;;;;;5007351;28;20496;-75
2021/09/08 04:51:08;;;;;;;7.50;6.70;;;18.00;99.90;;;;;;5003550;28;20537;-77
2021/09/08 04:53:36;;;;;;;9.03;7.13;;;18.00;99.90;;;;;;5008924;28;20460;-73
2021/09/08 04:56:04;;;;;;;7.43;6.63;;;18.00;99.90;;;;;;5006847;28;20449;-75
2021/09/08 04:58:32;;;;;;;7.50;6.50;;;18.00;99.90;;;;;;5003786;28;20464;-75
2021/09/08 05:01:00;;;;;;;6.83;6.23;;;18.00;99.90;;;;;;5005446;28;20449;-76
2021/09/08 05:03:29;;;;;;;8.50;6.60;;;17.90;99.90;;;;;;5007506;28;20485;-76
2021/09/08 05:05:57;;;;;;;7.90;7.10;;;17.90;99.90;;;;;;5003167;28;20457;-75
2021/09/08 05:08:26;;;;;;;6.77;6.17;;;17.90;99.90;;;;;;5004966;28;20503;-77
2021/09/08 05:10:54;;;;;;;8.50;7.60;;;17.90;99.90;;;;;;5005349;28;20689;-77
2021/09/08 05:13:23;;;;;;;8.47;6.13;;;17.90;99.90;;;;;;5008013;28;20934;-77
2021/09/08 05:15:51;;;;;;;7.63;6.80;;;17.90;99.90;;;;;;5006641;28;20820;-77
2021/09/08 05:18:19;;;;;;;9.10;6.90;;;17.90;99.90;;;;;;5007382;28;20453;-75
2021/09/08 05:20:47;;;;;;;10.23;7.80;;;17.80;99.90;;;;;;5001019;28;20501;-77
2021/09/08 05:23:15;;;;;;;9.17;7.40;;;17.90;99.90;;;;;;5005512;28;20451;-77
2021/09/08 05:25:44;;;;;;;8.90;7.30;;;17.80;99.90;;;;;;5006281;28;20938;-75
2021/09/08 05:28:12;;;;;;;8.20;7.10;;;17.90;99.90;;;;;;5008715;28;20460;-75
2021/09/08 05:30:41;;;;;;;8.10;6.50;;;17.90;99.90;;;;;;5004146;28;20496;-75
2021/09/08 05:33:09;;;;;;;8.77;6.67;;;17.90;99.90;;;;;;5005778;28;20484;-73
2021/09/08 05:35:37;;;;;;;7.40;6.60;;;17.90;99.90;;;;;;5007309;28;20802;-75
2021/09/08 05:38:05;;;;;;;8.40;6.17;;;17.90;99.90;;;;;;5010697;28;20449;-79
2021/09/08 05:40:34;;;;;;;7.93;6.10;;;17.70;99.90;;;;;;5011619;28;20452;-77
2021/09/08 05:43:03;;;;;;;8.53;6.37;;;17.50;99.90;;;;;;5005692;28;20491;-78
2021/09/08 05:45:31;;;;;;;8.20;6.70;;;17.50;99.90;;;;;;5008472;28;20458;-78
2021/09/08 05:48:00;;;;;;;9.23;7.37;;;17.70;99.90;;;;;;5014825;28;20456;-77
2021/09/08 05:50:28;;;;;;;8.63;7.33;;;17.70;99.90;;;;;;5002191;28;20465;-78
2021/09/08 05:52:56;;;;;;;8.80;7.67;;;17.80;99.90;;;;;;5007099;28;20504;-78
2021/09/08 05:55:24;;;;;;;9.57;7.37;;;17.80;99.90;;;;;;5009661;28;20807;-78
2021/09/08 05:57:52;;;;;;;8.90;6.80;;;17.90;99.90;;;;;;5007844;28;20972;-78
2021/09/08 06:00:21;;;;;;;10.20;7.93;;;17.90;99.90;;;;;;5009997;28;20453;-78
2021/09/08 06:02:50;;;;;;;11.90;7.83;;;17.90;99.90;;;;;;5009171;28;20485;-75
2021/09/08 06:05:18;;;;;;;9.30;6.87;;;18.00;99.90;;;;;;5003646;28;21026;-79
2021/09/08 06:07:47;;;;;;;8.50;7.00;;;18.00;99.90;;;;;;5003898;28;20548;-78
2021/09/08 06:10:17;;;;;;;7.77;7.07;;;18.10;99.90;;;;;;5001060;28;20454;-79
2021/09/08 06:12:45;;;;;;;8.73;7.33;;;18.10;99.90;;;;;;5006579;28;20465;-78
2021/09/08 06:15:14;;;;;;;10.70;7.67;;;18.20;99.90;;;;;;5006289;28;20461;-78
2021/09/08 06:17:43;;;;;;;12.10;8.37;;;18.30;99.90;;;;;;5004385;28;20507;-77
2021/09/08 06:20:12;;;;;;;12.60;9.20;;;18.30;99.90;;;;;;5002958;28;20532;-78
2021/09/08 06:22:41;;;;;;;11.17;8.00;;;18.40;99.90;;;;;;5007761;28;20477;-79
2021/09/08 06:25:10;;;;;;;11.50;7.90;;;18.40;99.90;;;;;;5006332;28;20682;-79
2021/09/08 06:27:39;;;;;;;11.27;7.70;;;18.50;99.90;;;;;;5004871;28;20548;-78
2021/09/08 06:30:08;;;;;;;9.30;8.40;;;18.50;99.90;;;;;;5007291;28;20468;-80
2021/09/08 06:32:36;;;;;;;10.27;8.30;;;18.50;99.90;;;;;;5009445;28;20481;-80
2021/09/08 06:35:07;;;;;;;10.70;8.13;;;18.60;99.90;;;;;;5008141;28;20480;-78
2021/09/08 06:37:35;;;;;;;9.20;7.50;;;18.70;99.90;;;;;;5008805;28;20984;-80
2021/09/08 06:40:04;;;;;;;11.20;7.50;;;18.70;99.90;;;;;;5008759;28;20453;-81
2021/09/08 06:42:32;;;;;;;10.40;8.20;;;18.80;99.90;;;;;;5008853;28;20485;-78
2021/09/08 06:45:08;;;;;;;10.00;7.93;;;18.90;99.90;;;;;;5010181;28;20492;-76
2021/09/08 06:47:38;;;;;;;8.57;7.20;;;19.00;99.90;;;;;;5013547;28;20472;-76
2021/09/08 06:50:08;;;;;;;8.17;7.37;;;19.10;99.90;;;;;;5012152;28;20969;-79
2021/09/08 06:52:37;;;;;;;8.90;7.67;;;19.20;99.90;;;;;;5011516;28;20506;-78
2021/09/08 06:55:06;;;;;;;7.60;6.80;;;19.30;99.90;;;;;;5012819;28;21003;-77
2021/09/08 06:57:35;;;;;;;9.57;7.10;;;19.40;99.90;;;;;;5011700;28;20457;-78
2021/09/08 07:00:04;;;;;;;7.97;7.13;;;19.50;99.90;;;;;;5012049;28;20469;-78
2021/09/08 07:02:32;;;;;;;7.57;6.87;;;19.50;99.90;;;;;;5009650;28;20496;-74
2021/09/08 07:05:00;;;;;;;7.83;6.27;;;19.60;99.90;;;;;;5006995;28;21853;-79
2021/09/08 07:07:30;;;;;;;9.83;6.90;;;19.70;99.90;;;;;;5008418;28;20445;-79
2021/09/08 07:09:58;;;;;;;7.23;5.70;;;19.70;99.90;;;;;;5008921;28;20993;-77
2021/09/08 07:12:26;;;;;;;7.70;6.90;;;19.80;99.90;;;;;;5006598;28;20485;-79
2021/09/08 07:14:54;;;;;;;6.97;5.77;;;19.80;99.90;;;;;;5008016;28;20984;-75
2021/09/08 07:17:23;;;;;;;7.97;6.40;;;19.90;99.90;;;;;;5001957;28;20500;-77
2021/09/08 07:19:51;;;;;;;7.03;5.30;;;20.00;99.90;;;;;;5012709;28;20945;-78
2021/09/08 07:22:19;;;;;;;7.97;5.70;;;20.00;99.90;;;;;;5011468;28;20480;-80
2021/09/08 07:24:49;;;;;;;7.07;5.57;;;20.10;99.90;;;;;;5004594;28;20462;-77
2021/09/08 07:27:17;;;;;;;7.83;5.77;;;20.20;99.90;;;;;;5001206;28;20469;-78
2021/09/08 07:29:45;;;;;;;7.80;5.70;;;20.20;99.90;;;;;;5012185;28;20529;-77
2021/09/08 07:32:14;;;;;;;7.43;6.57;;;20.30;99.90;;;;;;5011058;28;20600;-77
2021/09/08 07:34:42;;;;;;;6.77;6.17;;;20.40;99.90;;;;;;5012575;28;20881;-76
2021/09/08 07:37:10;;;;;;;6.33;5.33;;;20.50;99.90;;;;;;5004625;28;20899;-77
2021/09/08 07:39:38;;;;;;;6.00;4.93;;;20.50;99.90;;;;;;5011291;28;20880;-77
2021/09/08 07:42:08;;;;;;;4.93;4.43;;;20.50;99.90;;;;;;5013099;28;20488;-78
2021/09/08 07:44:36;;;;;;;6.73;5.97;;;20.70;99.90;;;;;;5012434;28;20587;-79
2021/09/08 07:47:04;;;;;;;6.30;5.20;;;20.70;99.90;;;;;;5009316;28;20525;-75
2021/09/08 07:49:32;;;;;;;6.03;5.00;;;20.80;99.90;;;;;;5006687;28;20460;-78
2021/09/08 07:52:01;;;;;;;6.70;5.00;;;21.00;99.90;;;;;;5011644;28;21069;-77
2021/09/08 07:54:29;;;;;;;7.10;5.17;;;21.10;99.90;;;;;;5012203;28;20457;-76
2021/09/08 07:56:57;;;;;;;7.43;5.00;;;21.20;99.90;;;;;;5012470;28;20448;-77
2021/09/08 07:59:27;;;;;;;5.70;4.77;;;21.30;99.90;;;;;;5007856;28;20457;-76
2021/09/08 08:01:55;;;;;;;7.40;5.50;;;21.40;99.90;;;;;;5008907;28;20539;-77
2021/09/08 08:04:24;;;;;;;5.17;4.67;;;21.50;99.90;;;;;;5011008;28;20484;-76
2021/09/08 08:06:52;;;;;;;5.33;4.77;;;21.60;99.90;;;;;;5009639;28;20455;-77
2021/09/08 08:09:20;;;;;;;7.03;4.80;;;21.70;99.90;;;;;;5008665;28;20500;-78
2021/09/08 08:11:48;;;;;;;7.27;5.23;;;21.80;99.90;;;;;;5007896;28;20573;-76
2021/09/08 08:14:16;;;;;;;6.93;4.97;;;21.90;99.90;;;;;;5008769;28;20457;-78
2021/09/08 08:16:46;;;;;;;5.27;4.77;;;21.90;99.90;;;;;;5008455;28;20468;-78
2021/09/08 08:19:14;;;;;;;6.70;4.70;;;22.00;99.90;;;;;;5008734;28;20450;-77
2021/09/08 08:21:42;;;;;;;5.03;4.53;;;22.10;99.90;;;;;;5010712;28;20473;-77
2021/09/08 08:24:12;;;;;;;5.43;4.93;;;22.10;99.90;;;;;;5010506;28;20492;-78
2021/09/08 08:26:41;;;;;;;5.67;4.97;;;22.10;99.90;;;;;;5008742;28;20458;-77
2021/09/08 08:29:09;;;;;;;5.70;5.10;;;22.20;99.90;;;;;;5009209;28;20457;-77
2021/09/08 08:31:38;;;;;;;4.77;4.37;;;22.30;99.90;;;;;;5010244;28;20475;-79
2021/09/08 08:34:07;;;;;;;7.10;5.10;;;22.30;99.90;;;;;;5009713;28;20723;-78
2021/09/08 08:36:36;;;;;;;7.80;5.27;;;22.30;99.90;;;;;;5006961;28;20771;-79
2021/09/08 08:39:04;;;;;;;4.97;4.47;;;22.40;99.90;;;;;;5009362;28;20471;-77
2021/09/08 08:41:32;;;;;;;5.50;4.40;;;22.40;99.90;;;;;;5011357;28;20520;-77
2021/09/08 08:44:02;;;;;;;4.63;4.23;;;22.50;99.90;;;;;;5010917;28;20486;-76
2021/09/08 08:46:31;;;;;;;4.43;4.03;;;22.50;99.90;;;;;;5009474;28;20468;-76
2021/09/08 08:48:59;;;;;;;4.40;3.97;;;22.60;99.90;;;;;;5009532;28;20728;-76
2021/09/08 08:51:29;;;;;;;6.30;4.43;;;22.60;99.90;;;;;;5009589;28;20501;-78
2021/09/08 08:53:57;;;;;;;4.73;4.23;;;22.60;99.90;;;;;;5009272;28;20457;-79
2021/09/08 08:56:25;;;;;;;5.70;4.23;;;22.70;99.90;;;;;;5011706;28;20945;-78
2021/09/08 08:58:54;;;;;;;4.90;4.50;;;22.70;99.90;;;;;;5008218;28;20465;-77
2021/09/08 09:01:24;;;;;;;5.10;4.60;;;22.80;99.90;;;;;;5010051;28;20477;-76
2021/09/08 09:04:01;;;;;;;5.07;4.53;;;22.70;99.90;;;;;;5009855;28;20485;-78
2021/09/08 09:06:32;;;;;;;5.33;4.50;;;22.80;99.90;;;;;;5009956;28;20460;-77
2021/09/08 09:09:02;;;;;;;5.57;4.97;;;22.90;99.90;;;;;;5008898;28;20465;-79
2021/09/08 09:11:30;;;;;;;4.97;4.30;;;23.00;99.90;;;;;;5008404;28;20469;-78
2021/09/08 09:13:59;;;;;;;5.00;4.50;;;23.00;99.90;;;;;;5004358;28;20446;-78
2021/09/08 09:16:28;;;;;;;5.90;5.10;;;23.10;99.90;;;;;;5008471;28;20519;-79
2021/09/08 09:18:56;;;;;;;7.80;4.97;;;23.10;99.90;;;;;;5006948;28;20461;-78
2021/09/08 09:21:26;;;;;;;6.43;5.20;;;23.10;99.90;;;;;;5001510;28;20686;-78
2021/09/08 09:23:57;;;;;;;5.83;4.73;;;23.20;99.90;;;;;;5002910;28;20527;-77
2021/09/08 09:26:28;;;;;;;6.80;6.10;;;23.40;99.90;;;;;;5010644;28;20468;-79
2021/09/08 09:29:06;;;;;;;5.43;4.90;;;23.30;99.90;;;;;;5007525;28;20480;-79
2021/09/08 09:31:35;;;;;;;7.37;4.63;;;23.40;99.90;;;;;;5006744;28;20465;-77
2021/09/08 09:34:03;;;;;;;5.30;4.80;;;23.40;99.90;;;;;;5007445;28;20481;-77
2021/09/08 09:36:31;;;;;;;6.27;5.17;;;23.40;99.90;;;;;;5008670;28;20869;-77
2021/09/08 09:39:01;;;;;;;5.43;4.50;;;23.40;99.90;;;;;;5008359;28;20992;-78
2021/09/08 09:41:35;;;;;;;10.57;5.53;;;23.50;99.90;;;;;;5005617;28;20477;-79
2021/09/08 09:44:09;;;;;;;5.47;4.97;;;23.50;99.90;;;;;;5005713;28;20517;-79
2021/09/08 09:46:40;;;;;;;6.27;5.67;;;23.60;99.90;;;;;;5007653;28;20198;-78
2021/09/08 09:49:09;;;;;;;6.70;5.30;;;23.60;99.90;;;;;;5007713;28;20552;-76
2021/09/08 09:51:37;;;;;;;5.23;4.73;;;23.60;99.90;;;;;;5004376;28;20837;-74
2021/09/08 09:54:07;;;;;;;5.60;5.00;;;23.60;99.90;;;;;;5001680;28;20457;-77
2021/09/08 09:56:35;;;;;;;6.90;5.00;;;23.70;99.90;;;;;;5009031;28;20440;-77
2021/09/08 09:59:03;;;;;;;8.50;6.50;;;23.70;99.90;;;;;;5008822;28;20509;-77
2021/09/08 10:01:31;;;;;;;5.67;5.13;;;23.80;99.90;;;;;;5007148;28;20477;-78
2021/09/08 10:04:02;;;;;;;7.87;5.80;;;23.80;99.90;;;;;;5005832;28;20520;-76
2021/09/08 10:06:31;;;;;;;6.23;5.63;;;23.90;99.90;;;;;;5004759;28;20976;-77
2021/09/08 10:09:00;;;;;;;7.00;5.57;;;23.90;99.90;;;;;;5005905;28;20552;-77
2021/09/08 10:11:33;;;;;;;6.30;5.70;;;24.00;99.90;;;;;;5008731;28;20485;-79
2021/09/08 10:14:06;;;;;;;4.77;4.33;;;24.00;99.90;;;;;;5009631;28;20993;-77
2021/09/08 10:16:36;;;;;;;6.03;5.10;;;24.00;99.90;;;;;;5010927;28;20516;-78
2021/09/08 10:19:06;;;;;;;6.67;5.97;;;24.10;99.90;;;;;;5010400;28;20462;-77
2021/09/08 10:21:36;;;;;;;7.20;5.97;;;24.30;99.90;;;;;;5009147;28;20519;-77
2021/09/08 10:24:05;;;;;;;5.15;4.65;;;24.20;99.90;;;;;;5011643;28;20442;-79
2021/09/08 10:26:35;;;;;;;5.70;5.10;;;24.20;99.90;;;;;;5011466;28;20278;-78
2021/09/08 10:29:07;;;;;;;5.30;4.57;;;24.30;99.90;;;;;;4993156;28;21154;-75
2021/09/08 10:31:38;;;;;;;6.77;6.03;;;24.40;99.90;;;;;;5001915;28;20869;-79
2021/09/08 10:34:07;;;;;;;6.30;5.63;;;24.50;99.90;;;;;;5013962;28;20883;-78
2021/09/08 10:36:38;;;;;;;6.50;4.80;;;24.50;99.90;;;;;;5012960;28;20443;-77
2021/09/08 10:39:09;;;;;;;5.03;4.43;;;24.40;99.90;;;;;;5009223;28;20475;-79
2021/09/08 10:41:41;;;;;;;5.73;4.80;;;24.40;99.90;;;;;;5007604;28;20480;-77
2021/09/08 10:44:09;;;;;;;4.40;4.10;;;24.40;99.90;;;;;;5013320;28;20476;-79
2021/09/08 10:46:52;;;;;;;6.03;5.33;;;24.50;99.90;;;;;;5014123;28;20458;-78
2021/09/08 10:49:56;;;;;;;6.40;5.80;;;24.50;99.90;;;;;;5008226;28;20465;-77
2021/09/08 10:52:43;;;;;;;5.27;4.77;;;24.60;99.90;;;;;;5005347;28;20567;-74
2021/09/08 10:55:20;;;;;;;6.97;6.28;;;24.60;99.90;;;;;;4999231;28;20454;-78
2021/09/08 10:58:00;;;;;;;6.10;5.50;;;24.80;99.90;;;;;;5013123;28;20206;-75
2021/09/08 11:00:31;;;;;;;6.10;5.50;;;24.70;99.90;;;;;;5010955;28;20496;-78
2021/09/08 11:02:59;;;;;;;5.03;4.17;;;24.60;99.90;;;;;;5012715;28;20477;-76
2021/09/08 11:05:29;;;;;;;6.07;5.40;;;24.70;99.90;;;;;;5005328;28;21099;-77
2021/09/08 11:07:57;;;;;;;8.20;5.60;;;24.70;99.90;;;;;;5013902;28;20465;-77
2021/09/08 11:10:30;;;;;;;6.13;5.53;;;24.80;99.90;;;;;;4994452;28;20446;-76
2021/09/08 11:13:01;;;;;;;12.83;5.13;;;24.80;99.90;;;;;;5008506;28;20477;-78
2021/09/08 11:15:32;;;;;;;5.13;4.63;;;24.80;99.90;;;;;;5009640;28;20449;-77
2021/09/08 11:18:00;;;;;;;7.10;5.90;;;24.90;99.90;;;;;;5013825;28;20440;-77
2021/09/08 11:20:29;;;;;;;6.67;5.70;;;24.90;99.90;;;;;;5009801;28;20523;-78
2021/09/08 11:23:04;;;;;;;5.53;5.00;;;24.90;99.90;;;;;;5009810;28;20540;-79
2021/09/08 11:25:34;;;;;;;5.57;5.00;;;24.90;99.90;;;;;;4993967;28;20493;-79
2021/09/08 11:28:05;;;;;;;5.70;4.73;;;24.90;99.90;;;;;;5012485;28;20457;-80
2021/09/08 11:30:36;;;;;;;6.07;4.90;;;25.00;99.90;;;;;;5011001;28;20464;-76
2021/09/08 11:33:06;;;;;;;6.97;6.37;;;25.10;99.90;;;;;;5012715;28;20481;-77
2021/09/08 11:35:40;;;;;;;5.40;4.90;;;25.20;99.90;;;;;;5012200;28;20450;-77
2021/09/08 11:38:11;;;;;;;5.30;4.80;;;25.20;99.90;;;;;;5009351;28;20468;-78
2021/09/08 11:40:45;;;;;;;6.40;4.80;;;25.20;99.90;;;;;;5027241;28;20437;-74
2021/09/08 11:43:15;;;;;;;5.13;4.73;;;25.20;99.90;;;;;;4999764;28;20874;-77
2021/09/08 11:45:43;;;;;;;4.73;4.30;;;25.20;99.90;;;;;;5012196;28;20481;-79
2021/09/08 11:48:11;;;;;;;5.57;5.07;;;25.20;99.90;;;;;;5012049;28;20453;-78
2021/09/08 11:50:39;;;;;;;5.90;5.40;;;25.30;99.90;;;;;;5009141;28;20523;-78
2021/09/08 11:53:07;;;;;;;5.53;5.03;;;25.40;99.90;;;;;;5011320;28;20539;-79
2021/09/08 11:55:38;;;;;;;5.20;4.70;;;25.50;99.90;;;;;;5013815;28;20442;-78
2021/09/08 11:58:21;;;;;;;5.20;4.70;;;25.50;99.90;;;;;;5010080;28;21107;-77
2021/09/08 12:01:00;;;;;;;5.80;4.50;;;25.60;99.90;;;;;;5011109;28;20465;-80
2021/09/08 12:03:31;;;;;;;5.80;5.00;;;25.50;99.90;;;;;;5012507;28;20553;-77
2021/09/08 12:06:11;;;;;;;5.37;4.53;;;25.50;99.90;;;;;;5006485;28;21030;-77
2021/09/08 12:08:48;;;;;;;5.50;5.00;;;25.50;99.90;;;;;;5012735;28;20979;-76
2021/09/08 12:11:37;;;;;;;6.63;5.27;;;25.50;99.90;;;;;;5003715;28;20680;-78
2021/09/08 12:14:21;;;;;;;5.13;4.70;;;25.50;99.90;;;;;;5011274;28;20984;-77
2021/09/08 12:16:52;;;;;;;6.10;4.57;;;25.50;99.90;;;;;;5011151;28;20842;-77
2021/09/08 12:19:27;;;;;;;4.70;4.30;;;25.60;99.90;;;;;;5005492;28;20852;-77
2021/09/08 12:22:04;;;;;;;5.37;4.70;;;25.70;99.90;;;;;;5002619;28;20476;-77
2021/09/08 12:24:34;;;;;;;5.20;4.50;;;25.70;99.90;;;;;;5006892;28;20453;-77
2021/09/08 12:27:02;;;;;;;4.70;4.27;;;25.70;99.90;;;;;;5009831;28;20773;-77
2021/09/08 12:29:32;;;;;;;5.07;4.30;;;25.70;99.90;;;;;;5010846;28;20864;-77
2021/09/08 12:32:01;;;;;;;4.83;4.40;;;25.80;99.90;;;;;;5011021;28;20904;-79
2021/09/08 12:34:44;;;;;;;6.37;4.97;;;25.80;99.90;;;;;;5009478;28;21019;-79
2021/09/08 12:37:14;;;;;;;5.63;5.13;;;25.90;99.90;;;;;;5006258;28;20457;-77
2021/09/08 12:39:46;;;;;;;4.80;4.40;;;25.90;99.90;;;;;;5007738;28;20449;-75
2021/09/08 12:42:22;;;;;;;5.17;4.70;;;26.00;99.90;;;;;;5008504;28;20877;-76
2021/09/08 12:44:53;;;;;;;5.00;4.60;;;26.00;99.90;;;;;;5011268;28;20449;-76
2021/09/08 12:47:22;;;;;;;4.93;4.43;;;26.00;99.90;;;;;;5009862;28;20473;-79
2021/09/08 12:49:51;;;;;;;4.27;3.87;;;26.10;99.90;;;;;;5012348;28;20519;-77
2021/09/08 12:52:21;;;;;;;4.70;4.30;;;26.10;99.90;;;;;;5010946;28;20560;-78
2021/09/08 12:54:50;;;;;;;4.53;4.13;;;26.10;99.90;;;;;;5012494;28;20458;-78
2021/09/08 12:57:20;;;;;;;4.23;3.83;;;26.20;99.90;;;;;;5011122;28;20497;-77